createdAt,value
2018-09-22T00:00:06.235Z,2.10
2018-09-22T00:01:06.110Z,2.10
2018-09-22T00:02:05.989Z,2.10
2018-09-22T00:03:05.864Z,1.90
2018-09-22T00:04:05.740Z,1.80
2018-09-22T00:05:05.617Z,1.90
2018-09-22T00:06:05.494Z,2.00
2018-09-22T00:07:05.369Z,2.00
2018-09-22T00:08:05.244Z,2.20
2018-09-22T00:09:05.120Z,2.10
2018-09-22T00:10:04.999Z,1.70
2018-09-22T00:11:04.872Z,1.70
2018-09-22T00:12:04.748Z,1.70
2018-09-22T00:13:04.627Z,1.80
2018-09-22T00:14:04.522Z,1.60
2018-09-22T00:15:04.376Z,1.80
2018-09-22T00:16:04.253Z,1.80
2018-09-22T00:17:04.131Z,1.70
2018-09-22T00:18:04.006Z,1.90
2018-09-22T00:19:03.883Z,1.90
2018-09-22T00:20:03.760Z,1.80
2018-09-22T00:21:03.635Z,1.90
2018-09-22T00:22:03.512Z,1.70
2018-09-22T00:23:03.387Z,1.60
2018-09-22T00:24:03.264Z,1.60
2018-09-22T00:25:03.140Z,1.70
2018-09-22T00:26:03.017Z,1.60
2018-09-22T00:27:02.892Z,1.50
2018-09-22T00:28:02.765Z,1.70
2018-09-22T00:29:02.645Z,1.40
2018-09-22T00:30:02.525Z,1.60
2018-09-22T00:31:02.395Z,1.50
2018-09-22T00:32:02.275Z,1.50
2018-09-22T00:33:02.147Z,1.80
2018-09-22T00:34:02.022Z,1.40
2018-09-22T00:35:01.898Z,1.80
2018-09-22T00:36:01.776Z,1.50
2018-09-22T00:37:01.650Z,1.40
2018-09-22T00:38:01.527Z,1.50
2018-09-22T00:39:01.402Z,1.50
2018-09-22T00:40:01.278Z,1.40
2018-09-22T00:41:01.156Z,1.50
2018-09-22T00:42:01.031Z,1.50
2018-09-22T00:43:00.906Z,1.30
2018-09-22T00:44:00.783Z,1.60
2018-09-22T00:45:00.659Z,1.50
2018-09-22T00:46:00.531Z,1.50
2018-09-22T00:47:00.406Z,1.40
2018-09-22T00:48:00.283Z,1.40
2018-09-22T00:49:00.161Z,1.30
2018-09-22T00:50:00.037Z,1.40
2018-09-22T00:50:59.911Z,1.30
2018-09-22T00:51:59.790Z,1.30
2018-09-22T00:52:59.663Z,1.40
2018-09-22T00:53:59.539Z,1.40
2018-09-22T00:54:59.415Z,1.40
2018-09-22T00:55:59.295Z,1.30
2018-09-22T00:56:59.164Z,1.30
2018-09-22T00:57:59.048Z,1.30
2018-09-22T00:58:58.917Z,1.20
2018-09-22T00:59:58.793Z,1.10
2018-09-22T01:00:58.669Z,1.10
2018-09-22T01:01:58.545Z,1.10
2018-09-22T01:02:58.418Z,1.30
2018-09-22T01:03:58.296Z,1.20
2018-09-22T01:04:58.171Z,1.20
2018-09-22T01:05:58.046Z,1.20
2018-09-22T01:06:57.923Z,1.20
2018-09-22T01:07:57.806Z,1.10
2018-09-22T01:08:57.675Z,1.10
2018-09-22T01:09:57.550Z,1.30
2018-09-22T01:10:57.422Z,1.20
2018-09-22T01:11:57.301Z,1.20
2018-09-22T01:12:57.175Z,1.30
2018-09-22T01:13:57.050Z,1.20
2018-09-22T01:14:56.928Z,1.40
2018-09-22T01:15:56.856Z,1.30
2018-09-22T01:16:56.676Z,1.40
2018-09-22T01:17:56.551Z,1.60
2018-09-22T01:18:56.427Z,1.50
2018-09-22T01:19:56.303Z,1.40
2018-09-22T01:20:56.176Z,1.50
2018-09-22T01:21:56.052Z,1.30
2018-09-22T01:22:55.933Z,1.50
2018-09-22T01:23:55.804Z,1.20
2018-09-22T01:24:55.681Z,1.40
2018-09-22T01:25:55.551Z,1.40
2018-09-22T01:26:55.428Z,1.50
2018-09-22T01:27:55.301Z,1.40
2018-09-22T01:28:55.179Z,1.50
2018-09-22T01:29:55.054Z,1.50
2018-09-22T01:30:54.929Z,1.40
2018-09-22T01:31:54.804Z,1.40
2018-09-22T01:32:54.682Z,1.40
2018-09-22T01:33:54.556Z,1.30
2018-09-22T01:34:54.430Z,1.70
2018-09-22T01:35:54.305Z,1.40
2018-09-22T01:36:54.182Z,1.30
2018-09-22T01:37:54.059Z,1.50
2018-09-22T01:38:53.933Z,1.20
2018-09-22T01:39:53.806Z,1.40
2018-09-22T01:40:53.684Z,1.30
2018-09-22T01:41:53.557Z,1.20
2018-09-22T01:42:53.433Z,1.40
2018-09-22T01:43:53.309Z,1.40
2018-09-22T01:44:53.181Z,1.40
2018-09-22T01:45:53.057Z,1.60
2018-09-22T01:46:52.935Z,1.70
2018-09-22T01:47:52.808Z,1.60
2018-09-22T01:48:52.684Z,1.50
2018-09-22T01:49:52.559Z,1.40
2018-09-22T01:50:52.433Z,1.30
2018-09-22T01:51:52.312Z,1.40
2018-09-22T01:52:52.188Z,1.30
2018-09-22T01:53:52.061Z,1.10
2018-09-22T01:54:51.934Z,1.20
2018-09-22T01:55:51.815Z,1.20
2018-09-22T01:56:51.686Z,1.20
2018-09-22T01:57:51.560Z,1.40
2018-09-22T01:58:51.434Z,1.30
2018-09-22T01:59:51.309Z,1.30
2018-09-22T02:00:51.186Z,1.30
2018-09-22T02:01:51.062Z,1.30
2018-09-22T02:02:50.936Z,1.30
2018-09-22T02:03:50.812Z,1.30
2018-09-22T02:04:50.689Z,1.40
2018-09-22T02:05:50.561Z,1.20
2018-09-22T02:06:50.437Z,1.30
2018-09-22T02:07:50.310Z,1.00
2018-09-22T02:08:50.187Z,1.30
2018-09-22T02:09:50.062Z,1.10
2018-09-22T02:10:49.938Z,1.10
2018-09-22T02:11:49.811Z,1.20
2018-09-22T02:12:49.686Z,1.30
2018-09-22T02:13:49.562Z,1.30
2018-09-22T02:14:49.436Z,1.10
2018-09-22T02:15:49.311Z,1.30
2018-09-22T02:16:49.184Z,1.10
2018-09-22T02:17:49.063Z,1.20
2018-09-22T02:18:48.936Z,1.30
2018-09-22T02:19:48.809Z,1.10
2018-09-22T02:20:48.685Z,1.30
2018-09-22T02:21:48.560Z,1.60
2018-09-22T02:22:48.436Z,1.30
2018-09-22T02:23:48.312Z,1.20
2018-09-22T02:24:48.192Z,1.10
2018-09-22T02:25:48.063Z,1.10
2018-09-22T02:26:47.932Z,1.20
2018-09-22T02:27:47.809Z,1.30
2018-09-22T02:28:47.682Z,1.40
2018-09-22T02:29:47.558Z,1.40
2018-09-22T02:30:47.436Z,1.70
2018-09-22T02:31:47.307Z,1.60
2018-09-22T02:32:47.187Z,1.50
2018-09-22T02:33:47.055Z,1.30
2018-09-22T02:34:46.934Z,1.40
2018-09-22T02:35:46.809Z,1.40
2018-09-22T02:36:46.679Z,2.30
2018-09-22T02:37:46.560Z,3.30
2018-09-22T02:38:46.430Z,2.00
2018-09-22T02:39:46.300Z,1.50
2018-09-22T02:40:46.177Z,1.50
2018-09-22T02:41:46.052Z,1.40
2018-09-22T02:42:45.926Z,1.50
2018-09-22T02:43:45.808Z,1.50
2018-09-22T02:44:45.675Z,1.50
2018-09-22T02:45:45.548Z,1.60
2018-09-22T02:46:45.423Z,1.50
2018-09-22T02:47:45.297Z,1.40
2018-09-22T02:48:45.172Z,1.40
2018-09-22T02:49:45.046Z,1.40
2018-09-22T02:50:44.920Z,1.70
2018-09-22T02:51:44.797Z,1.20
2018-09-22T02:52:44.669Z,1.50
2018-09-22T02:53:44.546Z,1.60
2018-09-22T02:54:44.417Z,1.40
2018-09-22T02:55:44.293Z,1.30
2018-09-22T02:56:44.165Z,1.50
2018-09-22T02:57:44.042Z,2.50
2018-09-22T02:58:43.914Z,1.40
2018-09-22T02:59:43.790Z,1.50
2018-09-22T03:00:43.662Z,1.80
2018-09-22T03:01:43.536Z,2.50
2018-09-22T03:02:43.409Z,2.40
2018-09-22T03:03:43.285Z,1.10
2018-09-22T03:04:43.164Z,1.30
2018-09-22T03:05:43.051Z,2.40
2018-09-22T03:06:42.921Z,2.40
2018-09-22T03:07:42.781Z,3.10
2018-09-22T03:08:42.700Z,2.10
2018-09-22T03:09:42.531Z,1.50
2018-09-22T03:10:42.406Z,1.70
2018-09-22T03:11:42.278Z,1.60
2018-09-22T03:12:42.155Z,2.00
2018-09-22T03:13:42.025Z,1.70
2018-09-22T03:14:41.946Z,2.20
2018-09-22T03:15:41.773Z,2.10
2018-09-22T03:16:41.651Z,2.70
2018-09-22T03:17:41.529Z,4.80
2018-09-22T03:18:41.397Z,2.60
2018-09-22T03:19:41.271Z,2.30
2018-09-22T03:20:41.144Z,2.30
2018-09-22T03:21:41.019Z,3.10
2018-09-22T03:22:40.892Z,5.10
2018-09-22T03:23:40.768Z,5.40
2018-09-22T03:24:40.642Z,2.00
2018-09-22T03:25:40.515Z,5.90
2018-09-22T03:26:40.388Z,2.40
2018-09-22T03:27:40.261Z,2.90
2018-09-22T03:28:40.135Z,2.80
2018-09-22T03:29:40.010Z,4.00
2018-09-22T03:30:39.881Z,3.60
2018-09-22T03:31:39.756Z,4.90
2018-09-22T03:32:39.628Z,5.10
2018-09-22T03:33:39.503Z,1.90
2018-09-22T03:34:39.375Z,1.90
2018-09-22T03:35:39.249Z,1.70
2018-09-22T03:36:39.123Z,3.10
2018-09-22T03:37:38.999Z,1.80
2018-09-22T03:38:38.870Z,1.50
2018-09-22T03:39:38.744Z,2.30
2018-09-22T03:40:38.618Z,5.90
2018-09-22T03:41:38.491Z,4.50
2018-09-22T03:42:38.365Z,2.30
2018-09-22T03:43:38.241Z,4.90
2018-09-22T03:44:38.114Z,9.20
2018-09-22T03:45:37.988Z,11.20
2018-09-22T03:46:37.859Z,2.70
2018-09-22T03:47:37.737Z,2.30
2018-09-22T03:48:37.606Z,3.00
2018-09-22T03:49:37.486Z,2.50
2018-09-22T03:50:37.356Z,1.40
2018-09-22T03:51:37.233Z,1.30
2018-09-22T03:52:37.102Z,1.30
2018-09-22T03:53:36.977Z,4.30
2018-09-22T03:54:36.853Z,1.90
2018-09-22T03:55:36.727Z,2.90
2018-09-22T03:56:36.597Z,2.90
2018-09-22T03:57:36.471Z,3.30
2018-09-22T03:58:36.344Z,2.30
2018-09-22T03:59:36.220Z,3.00
2018-09-22T04:00:36.091Z,9.30
2018-09-22T04:01:35.968Z,8.40
2018-09-22T04:02:35.839Z,5.90
2018-09-22T04:03:35.711Z,5.60
2018-09-22T04:04:35.584Z,7.50
2018-09-22T04:05:35.458Z,7.90
2018-09-22T04:06:35.334Z,4.70
2018-09-22T04:07:35.205Z,1.20
2018-09-22T04:08:35.078Z,3.00
2018-09-22T04:09:34.952Z,1.70
2018-09-22T04:10:34.827Z,1.10
2018-09-22T04:11:34.700Z,2.00
2018-09-22T04:12:34.574Z,5.00
2018-09-22T04:13:34.447Z,2.20
2018-09-22T04:14:34.318Z,3.80
2018-09-22T04:15:34.190Z,4.30
2018-09-22T04:16:34.063Z,4.10
2018-09-22T04:17:33.939Z,3.30
2018-09-22T04:18:33.809Z,2.90
2018-09-22T04:19:33.686Z,4.40
2018-09-22T04:20:33.556Z,2.30
2018-09-22T04:21:33.429Z,4.60
2018-09-22T04:22:33.304Z,1.20
2018-09-22T04:23:33.174Z,1.10
2018-09-22T04:24:33.049Z,1.20
2018-09-22T04:25:32.923Z,1.20
2018-09-22T04:26:32.795Z,1.30
2018-09-22T04:27:32.668Z,3.00
2018-09-22T04:28:32.542Z,2.40
2018-09-22T04:29:32.415Z,3.00
2018-09-22T04:30:32.300Z,2.40
2018-09-22T04:31:32.160Z,3.50
2018-09-22T04:32:32.034Z,3.50
2018-09-22T04:33:31.920Z,4.40
2018-09-22T04:34:31.782Z,3.00
2018-09-22T04:35:31.658Z,4.40
2018-09-22T04:36:31.526Z,3.70
2018-09-22T04:37:31.398Z,4.80
2018-09-22T04:38:31.274Z,5.50
2018-09-22T04:39:31.152Z,3.20
2018-09-22T04:40:31.019Z,4.70
2018-09-22T04:41:30.893Z,3.80
2018-09-22T04:42:30.771Z,1.60
2018-09-22T04:43:30.637Z,2.20
2018-09-22T04:44:30.512Z,1.40
2018-09-22T04:45:30.387Z,1.50
2018-09-22T04:46:30.257Z,1.60
2018-09-22T04:47:30.131Z,1.70
2018-09-22T04:48:30.006Z,1.30
2018-09-22T04:49:29.878Z,1.70
2018-09-22T04:50:29.751Z,2.00
2018-09-22T04:51:29.624Z,1.80
2018-09-22T04:52:29.501Z,1.80
2018-09-22T04:53:29.403Z,3.10
2018-09-22T04:54:29.276Z,2.70
2018-09-22T04:55:29.318Z,3.50
2018-09-22T04:56:28.994Z,2.20
2018-09-22T04:57:28.866Z,2.10
2018-09-22T04:58:28.735Z,4.00
2018-09-22T04:59:28.610Z,6.90
2018-09-22T05:00:28.485Z,6.40
2018-09-22T05:01:28.357Z,5.70
2018-09-22T05:02:28.230Z,8.20
2018-09-22T05:03:28.103Z,10.30
2018-09-22T05:04:27.976Z,7.60
2018-09-22T05:05:27.849Z,4.80
2018-09-22T05:06:27.721Z,8.10
2018-09-22T05:07:27.593Z,7.80
2018-09-22T05:08:27.465Z,10.30
2018-09-22T05:09:27.345Z,7.80
2018-09-22T05:10:27.212Z,4.10
2018-09-22T05:11:27.136Z,4.30
2018-09-22T05:12:26.958Z,4.80
2018-09-22T05:13:26.832Z,5.30
2018-09-22T05:14:26.702Z,4.60
2018-09-22T05:15:26.582Z,3.90
2018-09-22T05:16:26.452Z,2.20
2018-09-22T05:17:26.345Z,3.70
2018-09-22T05:18:26.194Z,2.20
2018-09-22T05:19:26.066Z,3.70
2018-09-22T05:20:25.982Z,6.90
2018-09-22T05:21:25.815Z,11.60
2018-09-22T05:22:25.685Z,6.80
2018-09-22T05:23:25.558Z,4.90
2018-09-22T05:24:25.443Z,5.60
2018-09-22T05:25:25.306Z,3.90
2018-09-22T05:26:25.176Z,2.60
2018-09-22T05:27:25.144Z,2.50
2018-09-22T05:28:24.923Z,7.90
2018-09-22T05:29:24.797Z,2.60
2018-09-22T05:30:24.666Z,3.60
2018-09-22T05:31:24.631Z,9.20
2018-09-22T05:32:24.551Z,6.10
2018-09-22T05:33:24.290Z,2.50
2018-09-22T05:34:24.157Z,2.30
2018-09-22T05:35:24.038Z,2.30
2018-09-22T05:36:23.906Z,2.80
2018-09-22T05:37:23.777Z,2.70
2018-09-22T05:38:23.649Z,2.30
2018-09-22T05:39:23.528Z,2.30
2018-09-22T05:40:23.415Z,2.50
2018-09-22T05:41:23.266Z,3.00
2018-09-22T05:42:23.142Z,5.00
2018-09-22T05:43:23.055Z,3.90
2018-09-22T05:44:22.899Z,8.60
2018-09-22T05:45:22.757Z,9.00
2018-09-22T05:46:22.630Z,7.20
2018-09-22T05:47:22.505Z,8.50
2018-09-22T05:48:22.551Z,8.60
2018-09-22T05:49:22.256Z,4.00
2018-09-22T05:50:22.404Z,6.00
2018-09-22T05:51:21.994Z,3.90
2018-09-22T05:52:22.202Z,5.20
2018-09-22T05:53:21.742Z,3.40
2018-09-22T05:54:21.610Z,4.40
2018-09-22T05:55:21.484Z,2.80
2018-09-22T05:56:21.356Z,2.30
2018-09-22T05:57:21.230Z,2.40
2018-09-22T05:58:21.101Z,3.00
2018-09-22T05:59:20.980Z,4.10
2018-09-22T06:00:20.849Z,2.80
2018-09-22T06:01:20.721Z,3.80
2018-09-22T06:02:20.592Z,3.40
2018-09-22T06:03:20.483Z,2.50
2018-09-22T06:04:20.336Z,3.10
2018-09-22T06:05:20.210Z,3.80
2018-09-22T06:06:20.081Z,3.30
2018-09-22T06:07:19.955Z,2.90
2018-09-22T06:08:19.827Z,2.20
2018-09-22T06:09:19.699Z,2.20
2018-09-22T06:10:19.573Z,2.30
2018-09-22T06:11:19.446Z,2.50
2018-09-22T06:12:19.318Z,1.90
2018-09-22T06:13:19.190Z,2.20
2018-09-22T06:14:19.069Z,2.20
2018-09-22T06:15:18.936Z,1.60
2018-09-22T06:16:18.809Z,2.00
2018-09-22T06:17:18.682Z,2.00
2018-09-22T06:18:18.558Z,2.40
2018-09-22T06:19:18.426Z,2.30
2018-09-22T06:20:18.299Z,2.60
2018-09-22T06:21:18.181Z,2.30
2018-09-22T06:22:18.046Z,2.10
2018-09-22T06:23:17.968Z,2.10
2018-09-22T06:24:17.804Z,2.10
2018-09-22T06:25:17.669Z,1.90
2018-09-22T06:26:17.535Z,2.10
2018-09-22T06:27:17.407Z,1.80
2018-09-22T06:28:17.282Z,1.70
2018-09-22T06:29:17.155Z,1.70
2018-09-22T06:30:17.028Z,3.60
2018-09-22T06:31:16.957Z,6.90
2018-09-22T06:32:16.773Z,5.00
2018-09-22T06:33:16.645Z,4.90
2018-09-22T06:34:16.518Z,8.50
2018-09-22T06:35:16.389Z,5.10
2018-09-22T06:36:16.264Z,5.70
2018-09-22T06:37:16.164Z,3.70
2018-09-22T06:38:16.008Z,2.70
2018-09-22T06:39:15.881Z,2.50
2018-09-22T06:40:15.754Z,1.90
2018-09-22T06:41:15.632Z,1.60
2018-09-22T06:42:15.500Z,1.80
2018-09-22T06:43:15.376Z,1.90
2018-09-22T06:44:15.299Z,1.70
2018-09-22T06:45:15.137Z,1.90
2018-09-22T06:46:15.047Z,1.60
2018-09-22T06:47:14.862Z,1.40
2018-09-22T06:48:14.737Z,1.60
2018-09-22T06:49:14.609Z,1.80
2018-09-22T06:50:14.487Z,2.20
2018-09-22T06:51:14.353Z,3.40
2018-09-22T06:52:14.226Z,3.40
2018-09-22T06:53:14.101Z,2.60
2018-09-22T06:54:13.972Z,3.00
2018-09-22T06:55:13.845Z,2.60
2018-09-22T06:56:13.719Z,2.90
2018-09-22T06:57:13.593Z,2.60
2018-09-22T06:58:13.462Z,3.10
2018-09-22T06:59:13.335Z,5.20
2018-09-22T07:00:13.212Z,3.20
2018-09-22T07:01:13.084Z,2.50
2018-09-22T07:02:12.955Z,2.40
2018-09-22T07:03:12.828Z,2.20
2018-09-22T07:04:12.701Z,2.30
2018-09-22T07:05:12.574Z,2.50
2018-09-22T07:06:12.447Z,2.30
2018-09-22T07:07:12.326Z,2.60
2018-09-22T07:08:12.194Z,3.20
2018-09-22T07:09:12.065Z,7.20
2018-09-22T07:10:11.937Z,6.80
2018-09-22T07:11:11.811Z,7.10
2018-09-22T07:12:11.681Z,7.80
2018-09-22T07:13:11.556Z,6.80
2018-09-22T07:14:11.427Z,6.20
2018-09-22T07:15:11.300Z,5.80
2018-09-22T07:16:11.173Z,5.30
2018-09-22T07:17:11.047Z,4.70
2018-09-22T07:18:10.918Z,2.90
2018-09-22T07:19:10.794Z,2.50
2018-09-22T07:20:10.663Z,3.10
2018-09-22T07:21:10.536Z,2.10
2018-09-22T07:22:10.408Z,3.40
2018-09-22T07:23:10.288Z,2.90
2018-09-22T07:24:10.154Z,4.20
2018-09-22T07:25:10.026Z,2.30
2018-09-22T07:26:09.898Z,2.30
2018-09-22T07:27:09.771Z,2.90
2018-09-22T07:28:09.645Z,3.30
2018-09-22T07:29:09.517Z,2.10
2018-09-22T07:30:09.390Z,1.90
2018-09-22T07:31:09.268Z,2.10
2018-09-22T07:32:09.139Z,1.90
2018-09-22T07:33:09.009Z,2.10
2018-09-22T07:34:08.895Z,2.20
2018-09-22T07:35:08.755Z,2.70
2018-09-22T07:36:08.627Z,2.50
2018-09-22T07:37:08.499Z,2.30
2018-09-22T07:38:08.391Z,2.10
2018-09-22T07:39:08.243Z,2.10
2018-09-22T07:40:08.118Z,2.10
2018-09-22T07:41:07.994Z,2.10
2018-09-22T07:42:07.864Z,2.00
2018-09-22T07:43:07.741Z,2.00
2018-09-22T07:44:07.610Z,1.90
2018-09-22T07:45:07.485Z,2.10
2018-09-22T07:46:07.355Z,1.70
2018-09-22T07:47:07.229Z,2.00
2018-09-22T07:48:07.103Z,1.80
2018-09-22T07:49:06.972Z,1.90
2018-09-22T07:50:06.848Z,1.90
2018-09-22T07:51:06.720Z,3.80
2018-09-22T07:52:06.594Z,2.40
2018-09-22T07:53:06.465Z,4.40
2018-09-22T07:54:06.340Z,3.00
2018-09-22T07:55:06.212Z,2.90
2018-09-22T07:56:06.086Z,3.10
2018-09-22T07:57:06.014Z,5.20
2018-09-22T07:58:05.833Z,4.60
2018-09-22T07:59:05.706Z,4.40
2018-09-22T08:00:05.579Z,4.30
2018-09-22T08:01:05.452Z,4.70
2018-09-22T08:02:05.323Z,4.10
2018-09-22T08:03:05.199Z,6.00
2018-09-22T08:04:05.070Z,4.10
2018-09-22T08:05:04.945Z,2.40
2018-09-22T08:06:04.819Z,10.10
2018-09-22T08:07:04.693Z,3.70
2018-09-22T08:08:04.568Z,2.50
2018-09-22T08:09:04.435Z,2.80
2018-09-22T08:10:04.310Z,2.60
2018-09-22T08:11:04.182Z,2.20
2018-09-22T08:12:04.057Z,2.90
2018-09-22T08:13:03.931Z,2.80
2018-09-22T08:14:03.802Z,3.10
2018-09-22T08:15:03.677Z,4.40
2018-09-22T08:16:03.548Z,8.40
2018-09-22T08:17:03.421Z,2.80
2018-09-22T08:18:03.296Z,3.50
2018-09-22T08:19:03.171Z,3.10
2018-09-22T08:20:03.042Z,3.20
2018-09-22T08:21:02.916Z,2.30
2018-09-22T08:22:02.788Z,2.60
2018-09-22T08:23:02.662Z,2.30
2018-09-22T08:24:02.536Z,2.40
2018-09-22T08:25:02.411Z,2.80
2018-09-22T08:26:02.282Z,5.70
2018-09-22T08:27:02.161Z,2.50
2018-09-22T08:28:02.029Z,3.70
2018-09-22T08:29:01.901Z,5.40
2018-09-22T08:30:01.777Z,2.40
2018-09-22T08:31:01.650Z,2.10
2018-09-22T08:32:01.570Z,2.50
2018-09-22T08:33:01.397Z,2.30
2018-09-22T08:34:01.270Z,2.60
2018-09-22T08:35:01.143Z,4.20
2018-09-22T08:36:01.132Z,5.00
2018-09-22T08:37:01.145Z,3.30
2018-09-22T08:38:00.763Z,2.30
2018-09-22T08:39:00.646Z,3.50
2018-09-22T08:40:00.509Z,2.70
2018-09-22T08:41:00.392Z,2.90
2018-09-22T08:42:00.270Z,2.40
2018-09-22T08:43:00.134Z,2.10
2018-09-22T08:44:00.080Z,1.90
2018-09-22T08:44:59.887Z,1.90
2018-09-22T08:45:59.758Z,2.00
2018-09-22T08:46:59.622Z,2.10
2018-09-22T08:47:59.500Z,2.10
2018-09-22T08:48:59.372Z,1.90
2018-09-22T08:49:59.291Z,1.80
2018-09-22T08:50:59.124Z,1.90
2018-09-22T08:51:58.993Z,1.80
2018-09-22T08:52:58.869Z,1.80
2018-09-22T08:53:58.738Z,1.70
2018-09-22T08:54:58.614Z,2.10
2018-09-22T08:55:58.496Z,2.00
2018-09-22T08:56:58.358Z,1.70
2018-09-22T08:57:58.321Z,1.80
2018-09-22T08:58:58.110Z,2.00
2018-09-22T08:59:57.980Z,1.90
2018-09-22T09:00:57.855Z,1.70
2018-09-22T09:01:57.729Z,1.50
2018-09-22T09:02:57.599Z,1.40
2018-09-22T09:03:57.476Z,1.70
2018-09-22T09:04:57.372Z,1.50
2018-09-22T09:05:57.233Z,1.40
2018-09-22T09:06:57.097Z,1.50
2018-09-22T09:07:56.970Z,1.50
2018-09-22T09:08:56.845Z,1.40
2018-09-22T09:09:56.718Z,1.30
2018-09-22T09:10:56.597Z,1.30
2018-09-22T09:11:56.471Z,1.30
2018-09-22T09:12:56.341Z,1.10
2018-09-22T09:13:56.217Z,1.40
2018-09-22T09:14:56.091Z,1.10
2018-09-22T09:15:55.964Z,1.00
2018-09-22T09:16:55.871Z,1.20
2018-09-22T09:17:55.737Z,1.10
2018-09-22T09:18:55.585Z,1.20
2018-09-22T09:19:55.459Z,1.20
2018-09-22T09:20:55.354Z,1.30
2018-09-22T09:21:55.211Z,1.20
2018-09-22T09:22:55.085Z,1.30
2018-09-22T09:23:54.960Z,1.10
2018-09-22T09:24:54.832Z,1.30
2018-09-22T09:25:54.709Z,1.30
2018-09-22T09:26:54.755Z,1.30
2018-09-22T09:27:54.457Z,1.60
2018-09-22T09:28:54.334Z,1.40
2018-09-22T09:29:54.380Z,1.20
2018-09-22T09:30:54.081Z,1.30
2018-09-22T09:31:53.956Z,1.10
2018-09-22T09:32:53.831Z,1.20
2018-09-22T09:33:53.710Z,1.10
2018-09-22T09:34:53.582Z,1.20
2018-09-22T09:35:53.461Z,1.30
2018-09-22T09:36:53.329Z,1.20
2018-09-22T09:37:53.315Z,1.20
2018-09-22T09:38:53.082Z,1.30
2018-09-22T09:39:52.954Z,1.10
2018-09-22T09:40:52.830Z,1.10
2018-09-22T09:41:52.706Z,1.30
2018-09-22T09:42:52.582Z,1.30
2018-09-22T09:43:52.455Z,1.30
2018-09-22T09:44:52.331Z,1.30
2018-09-22T09:45:52.230Z,1.30
2018-09-22T09:46:52.080Z,1.40
2018-09-22T09:47:51.961Z,1.20
2018-09-22T09:48:51.831Z,1.20
2018-09-22T09:49:51.710Z,1.60
2018-09-22T09:50:51.580Z,1.20
2018-09-22T09:51:51.455Z,1.30
2018-09-22T09:52:51.330Z,1.30
2018-09-22T09:53:51.205Z,1.20
2018-09-22T09:54:51.142Z,1.10
2018-09-22T09:55:50.956Z,1.10
2018-09-22T09:56:50.901Z,1.10
2018-09-22T09:57:50.708Z,1.00
2018-09-22T09:58:50.583Z,1.10
2018-09-22T09:59:50.545Z,1.20
2018-09-22T10:00:50.332Z,1.20
2018-09-22T10:01:50.208Z,1.40
2018-09-22T10:02:50.086Z,1.20
2018-09-22T10:03:49.958Z,1.10
2018-09-22T10:04:49.838Z,1.00
2018-09-22T10:05:49.710Z,1.00
2018-09-22T10:06:49.628Z,1.00
2018-09-22T10:07:49.470Z,1.10
2018-09-22T10:08:49.342Z,1.20
2018-09-22T10:09:49.212Z,1.10
2018-09-22T10:10:49.093Z,1.10
2018-09-22T10:11:49.009Z,1.10
2018-09-22T10:12:48.839Z,1.10
2018-09-22T10:13:48.715Z,1.20
2018-09-22T10:14:48.602Z,1.10
2018-09-22T10:15:48.466Z,1.10
2018-09-22T10:16:48.346Z,1.00
2018-09-22T10:17:48.220Z,1.10
2018-09-22T10:18:48.096Z,1.20
2018-09-22T10:19:47.973Z,1.20
2018-09-22T10:20:47.849Z,1.10
2018-09-22T10:21:47.724Z,1.00
2018-09-22T10:22:47.599Z,1.20
2018-09-22T10:23:47.478Z,1.10
2018-09-22T10:24:47.350Z,1.10
2018-09-22T10:25:47.234Z,1.00
2018-09-22T10:26:47.103Z,1.30
2018-09-22T10:27:46.979Z,1.10
2018-09-22T10:28:46.875Z,1.20
2018-09-22T10:29:46.732Z,1.00
2018-09-22T10:30:46.607Z,1.20
2018-09-22T10:31:46.481Z,1.20
2018-09-22T10:32:46.361Z,1.20
2018-09-22T10:33:46.237Z,1.10
2018-09-22T10:34:46.111Z,1.20
2018-09-22T10:35:45.987Z,1.00
2018-09-22T10:36:45.861Z,1.10
2018-09-22T10:37:45.739Z,1.10
2018-09-22T10:38:45.615Z,1.00
2018-09-22T10:39:45.499Z,1.10
2018-09-22T10:40:45.368Z,1.10
2018-09-22T10:41:45.249Z,1.20
2018-09-22T10:42:45.126Z,0.90
2018-09-22T10:43:44.997Z,0.90
2018-09-22T10:44:44.916Z,1.00
2018-09-22T10:45:44.809Z,1.00
2018-09-22T10:46:44.624Z,1.10
2018-09-22T10:47:44.538Z,1.10
2018-09-22T10:48:44.378Z,1.10
2018-09-22T10:49:44.254Z,1.00
2018-09-22T10:50:44.132Z,0.90
2018-09-22T10:51:44.008Z,1.00
2018-09-22T10:52:43.956Z,1.20
2018-09-22T10:53:43.761Z,1.10
2018-09-22T10:54:43.651Z,1.20
2018-09-22T10:55:43.513Z,1.10
2018-09-22T10:56:43.434Z,1.00
2018-09-22T10:57:43.335Z,0.90
2018-09-22T10:58:43.145Z,1.10
2018-09-22T10:59:43.022Z,0.90
2018-09-22T11:00:42.897Z,0.90
2018-09-22T11:01:42.774Z,1.00
2018-09-22T11:02:42.673Z,1.20
2018-09-22T11:03:42.530Z,1.10
2018-09-22T11:04:42.443Z,1.00
2018-09-22T11:05:42.283Z,0.90
2018-09-22T11:06:42.163Z,1.00
2018-09-22T11:07:42.169Z,1.10
2018-09-22T11:08:41.919Z,1.00
2018-09-22T11:09:41.804Z,1.20
2018-09-22T11:10:41.675Z,0.90
2018-09-22T11:11:41.761Z,1.10
2018-09-22T11:12:41.496Z,1.00
2018-09-22T11:13:41.313Z,1.00
2018-09-22T11:14:41.188Z,1.00
2018-09-22T11:15:41.068Z,1.00
2018-09-22T11:16:40.946Z,0.90
2018-09-22T11:17:40.828Z,0.90
2018-09-22T11:18:40.786Z,1.10
2018-09-22T11:19:40.584Z,1.00
2018-09-22T11:20:40.460Z,1.20
2018-09-22T11:21:40.403Z,1.00
2018-09-22T11:22:40.217Z,1.00
2018-09-22T11:23:40.098Z,1.10
2018-09-22T11:24:39.973Z,1.00
2018-09-22T11:25:39.851Z,1.10
2018-09-22T11:26:39.772Z,1.00
2018-09-22T11:27:39.637Z,1.00
2018-09-22T11:28:39.541Z,0.90
2018-09-22T11:29:39.370Z,0.90
2018-09-22T11:30:39.245Z,1.20
2018-09-22T11:31:39.170Z,1.00
2018-09-22T11:32:39.021Z,1.20
2018-09-22T11:33:38.879Z,1.00
2018-09-22T11:34:38.759Z,1.10
2018-09-22T11:35:38.637Z,0.90
2018-09-22T11:36:38.517Z,1.00
2018-09-22T11:37:38.395Z,1.10
2018-09-22T11:38:38.277Z,1.10
2018-09-22T11:39:38.154Z,1.00
2018-09-22T11:40:38.034Z,1.00
2018-09-22T11:41:37.910Z,0.90
2018-09-22T11:42:37.799Z,1.10
2018-09-22T11:43:37.671Z,1.10
2018-09-22T11:44:37.549Z,0.80
2018-09-22T11:45:37.424Z,1.10
2018-09-22T11:46:37.305Z,1.00
2018-09-22T11:47:37.183Z,1.00
2018-09-22T11:48:37.062Z,0.90
2018-09-22T11:49:36.955Z,1.00
2018-09-22T11:50:36.820Z,1.00
2018-09-22T11:51:36.699Z,0.90
2018-09-22T11:52:36.682Z,0.90
2018-09-22T11:53:36.490Z,1.00
2018-09-22T11:54:36.338Z,1.00
2018-09-22T11:55:36.216Z,0.90
2018-09-22T11:56:36.173Z,1.00
2018-09-22T11:57:35.972Z,0.90
2018-09-22T11:58:35.852Z,1.10
2018-09-22T11:59:35.734Z,1.10
2018-09-22T12:00:35.610Z,1.10
2018-09-22T12:01:35.494Z,0.90
2018-09-22T12:02:35.369Z,1.00
2018-09-22T12:03:35.251Z,1.20
2018-09-22T12:04:35.131Z,1.00
2018-09-22T12:05:35.009Z,1.10
2018-09-22T12:06:34.978Z,1.10
2018-09-22T12:07:34.767Z,1.00
2018-09-22T12:08:34.646Z,1.20
2018-09-22T12:09:34.525Z,1.10
2018-09-22T12:10:34.405Z,1.00
2018-09-22T12:11:34.285Z,1.10
2018-09-22T12:12:34.162Z,1.00
2018-09-22T12:13:34.039Z,1.00
2018-09-22T12:14:33.920Z,1.10
2018-09-22T12:15:33.807Z,1.00
2018-09-22T12:16:33.678Z,1.20
2018-09-22T12:17:33.560Z,1.10
2018-09-22T12:18:33.436Z,1.10
2018-09-22T12:19:33.316Z,1.20
2018-09-22T12:20:33.195Z,1.30
2018-09-22T12:21:33.075Z,1.10
2018-09-22T12:22:32.957Z,1.10
2018-09-22T12:23:32.835Z,1.20
2018-09-22T12:24:32.712Z,1.10
2018-09-22T12:25:32.591Z,1.00
2018-09-22T12:26:32.469Z,1.00
2018-09-22T12:27:32.356Z,1.10
2018-09-22T12:28:32.242Z,1.10
2018-09-22T12:29:32.106Z,1.00
2018-09-22T12:30:31.988Z,1.00
2018-09-22T12:31:31.865Z,1.10
2018-09-22T12:32:31.744Z,0.90
2018-09-22T12:33:31.623Z,1.00
2018-09-22T12:34:31.506Z,1.10
2018-09-22T12:35:31.384Z,1.10
2018-09-22T12:36:31.262Z,1.30
2018-09-22T12:37:31.145Z,1.00
2018-09-22T12:38:31.019Z,1.30
2018-09-22T12:39:30.904Z,1.40
2018-09-22T12:40:30.780Z,1.00
2018-09-22T12:41:30.663Z,1.10
2018-09-22T12:42:30.536Z,1.10
2018-09-22T12:43:30.415Z,1.20
2018-09-22T12:44:30.297Z,1.10
2018-09-22T12:45:30.177Z,1.10
2018-09-22T12:46:30.054Z,1.00
2018-09-22T12:47:29.934Z,1.10
2018-09-22T12:48:29.817Z,1.10
2018-09-22T12:49:29.770Z,1.20
2018-09-22T12:50:29.581Z,1.10
2018-09-22T12:51:29.462Z,1.30
2018-09-22T12:52:29.331Z,1.10
2018-09-22T12:53:29.211Z,1.00
2018-09-22T12:54:29.114Z,1.10
2018-09-22T12:55:28.971Z,1.20
2018-09-22T12:56:28.849Z,1.30
2018-09-22T12:57:28.727Z,1.20
2018-09-22T12:58:28.607Z,1.00
2018-09-22T12:59:28.488Z,1.00
2018-09-22T13:00:28.367Z,1.20
2018-09-22T13:01:28.247Z,1.10
2018-09-22T13:02:28.127Z,1.10
2018-09-22T13:03:28.005Z,1.10
2018-09-22T13:04:27.887Z,1.10
2018-09-22T13:05:27.766Z,1.10
2018-09-22T13:06:27.645Z,1.00
2018-09-22T13:07:27.524Z,1.10
2018-09-22T13:08:27.405Z,1.20
2018-09-22T13:09:27.284Z,1.30
2018-09-22T13:10:27.164Z,1.30
2018-09-22T13:11:27.044Z,1.20
2018-09-22T13:12:26.998Z,1.10
2018-09-22T13:13:26.867Z,1.20
2018-09-22T13:14:26.762Z,1.20
2018-09-22T13:15:26.563Z,1.00
2018-09-22T13:16:26.445Z,1.20